Afton, WY (83110)

5:26 PM MDT on July 30, 2014 (GMT -0600)
LCWY Branch Office (KWYAFTON3) Elev 6270 ft | 42.72 °N, 110.93 °W | Change Station

Current weather conditions updated 6 minutes ago

Clear
Clear
65.9 °F
Feels Like 65.9 °F
N
1.0
Wind Variable Wind from SSW
Gusts 5.0 mph

Tomorrow is forecast to be Much Warmer than today.

Today
High -- | Low -- °F
--% Chance of Precip.
Yesterday
High -- | Low -- °F
Precip. -- in
6:13 AM 8:46 PM
Waxing Crescent, 14% visible
Pressure 30.34 in
Visibility 10.0 miles
Clouds Clear
Dew Point 52 °F
Humidity 61%
Rainfall 0.07 in
Snow Depth 8 in , 0 in
UV 5 out of 12
Pollen 5.70 out of 12
Air Quality Not available.
Flu Activity Not available.
METAR KAFO 302315Z AUTO 15007KT 10SM CLR 18/10 A3034 RMK AO2

More Conditions Fewer Conditions

Pressure 30.34 in
Visibility 10.0 miles
Clouds Clear
Dew Point 52 °F
Humidity 61%
Rainfall 0.07 in
Snow Depth 8 in , 0 in
UV 5 out of 12
Pollen 5.70 out of 12
Air Quality Not available.
Flu Activity Not available.
METAR KAFO 302315Z AUTO 15007KT 10SM CLR 18/10 A3034 RMK AO2

More Conditions Fewer Conditions

10-Day Weather Forecast

Almanac

Astronomy

Jul. 30, 2014 Rise Set
Actual Time 6:13 AM MDT 8:46 PM MDT
Civil Twilight 5:41 AM MDT 9:18 PM MDT
Nautical Twilight 5:00 AM MDT 9:58 PM MDT
Astronomical Twilight 4:15 AM MDT 10:43 PM MDT
Moon 9:54 AM MDT 10:23 PM MDT
Length of Visible Light 15h 37m
Length of Day
14h 32m
Tomorrow will be 2m 9s shorter.
Waxing Crescent, 14% of the Moon is Illuminated
Today
Waxing Crescent
Aug 3
First Quarter
Aug 10
Full
Aug 17
Last Quarter
Aug 25
New

Today's Extremes

State Highs State Lows

Community

WunderPhotos

Upload Photos

1,739,248 photos uploaded!

Nearby

Snow Depth

Station Depth Elevation
Willow Creek 8 in 8450 ft
Salt River Summit 0 in 7600 ft
Blind Bull Summit 1 in 8900 ft
Hams Fork 0 in 7840 ft
Loomis Park 0 in 8240 ft

Earthquake Activity

City Distance Mag. Time & Date
No recent earthquake activity has been reported nearby.
Minimum magnitude displayed is 2.5.

Coastal Water Temperatures

Place Temperature
No Stations Reporting

Nearby Weather Stations

Station Location Temp. Dew Point Humidity Wind Precip. Elev Updated Type
LCWY Branch Office, Afton, WY 65.9 °F 52 °F 61% SSW  at  1.0 mph 0.00 in / hr 6270 ft 5:19 PM MDT Normal
Afton, WY 64.9 °F 20 °F 18% SW  at  3.0 mph 0.00 in / hr 6312 ft 5:25 PM MDT Normal

Show More Stations Show Fewer Stations